sensor_id;sensor_type;location;lat;lon;timestamp;pressure;altitude;pressure_sealevel;temperature;humidity
39449;BME280;25151;45.566;9.382;2023-03-14T00:00:55;98928.47;;;19.79;57.04
39449;BME280;25151;45.566;9.382;2023-03-14T00:03:56;98919.63;;;19.81;57.08
39449;BME280;25151;45.566;9.382;2023-03-14T00:06:57;98901.31;;;19.80;56.88
39449;BME280;25151;45.566;9.382;2023-03-14T00:09:58;98875.81;;;19.78;56.95
39449;BME280;25151;45.566;9.382;2023-03-14T00:13:02;98867.41;;;19.78;57.05
39449;BME280;25151;45.566;9.382;2023-03-14T00:16:08;98865.09;;;19.76;56.91
39449;BME280;25151;45.566;9.382;2023-03-14T00:19:09;98847.22;;;19.74;56.88
39449;BME280;25151;45.566;9.382;2023-03-14T00:22:10;98866.78;;;19.74;56.58
39449;BME280;25151;45.566;9.382;2023-03-14T00:25:12;98858.41;;;19.74;56.95
39449;BME280;25151;45.566;9.382;2023-03-14T00:28:13;98858.06;;;19.72;56.80
39449;BME280;25151;45.566;9.382;2023-03-14T00:31:15;98844.56;;;19.70;57.00
39449;BME280;25151;45.566;9.382;2023-03-14T00:34:16;98841.28;;;19.72;56.71
39449;BME280;25151;45.566;9.382;2023-03-14T00:37:17;98828.72;;;19.67;56.88
39449;BME280;25151;45.566;9.382;2023-03-14T00:40:19;98805.88;;;19.69;56.87
39449;BME280;25151;45.566;9.382;2023-03-14T00:43:20;98787.53;;;19.68;57.00
39449;BME280;25151;45.566;9.382;2023-03-14T00:46:27;98809.63;;;19.65;56.88
39449;BME280;25151;45.566;9.382;2023-03-14T00:49:28;98806.50;;;19.63;56.91
39449;BME280;25151;45.566;9.382;2023-03-14T00:52:30;98816.47;;;19.64;56.93
39449;BME280;25151;45.566;9.382;2023-03-14T00:55:38;98807.28;;;19.64;57.34
39449;BME280;25151;45.566;9.382;2023-03-14T00:58:39;98788.16;;;19.62;56.92
39449;BME280;25151;45.566;9.382;2023-03-14T01:01:41;98783.81;;;19.61;57.03
39449;BME280;25151;45.566;9.382;2023-03-14T01:04:42;98782.56;;;19.62;56.99
39449;BME280;25151;45.566;9.382;2023-03-14T01:07:43;98771.06;;;19.60;56.86
39449;BME280;25151;45.566;9.382;2023-03-14T01:10:45;98793.75;;;19.62;57.09
39449;BME280;25151;45.566;9.382;2023-03-14T01:13:47;98788.50;;;19.64;57.00
39449;BME280;25151;45.566;9.382;2023-03-14T01:16:48;98778.53;;;19.63;56.90
39449;BME280;25151;45.566;9.382;2023-03-14T01:19:51;98765.16;;;19.58;57.13
39449;BME280;25151;45.566;9.382;2023-03-14T01:22:53;98751.16;;;19.58;57.08
39449;BME280;25151;45.566;9.382;2023-03-14T01:25:56;98746.34;;;19.59;57.03
39449;BME280;25151;45.566;9.382;2023-03-14T01:28:58;98736.91;;;19.56;56.80
39449;BME280;25151;45.566;9.382;2023-03-14T01:31:59;98714.53;;;19.56;57.01
39449;BME280;25151;45.566;9.382;2023-03-14T01:35:00;98710.63;;;19.54;56.92
39449;BME280;25151;45.566;9.382;2023-03-14T01:38:01;98709.69;;;19.57;56.90
39449;BME280;25151;45.566;9.382;2023-03-14T01:41:03;98705.03;;;19.54;56.96
39449;BME280;25151;45.566;9.382;2023-03-14T01:44:04;98685.00;;;19.55;56.94
39449;BME280;25151;45.566;9.382;2023-03-14T01:47:06;98661.06;;;19.54;57.05
39449;BME280;25151;45.566;9.382;2023-03-14T01:50:09;98665.13;;;19.53;57.04
39449;BME280;25151;45.566;9.382;2023-03-14T01:53:12;98652.41;;;19.52;56.90
39449;BME280;25151;45.566;9.382;2023-03-14T01:56:15;98648.03;;;19.51;57.02
39449;BME280;25151;45.566;9.382;2023-03-14T01:59:20;98644.47;;;19.51;56.89
39449;BME280;25151;45.566;9.382;2023-03-14T02:02:25;98641.22;;;19.52;56.85
39449;BME280;25151;45.566;9.382;2023-03-14T02:05:29;98630.81;;;19.53;56.99
39449;BME280;25151;45.566;9.382;2023-03-14T02:08:33;98621.16;;;19.54;56.91
39449;BME280;25151;45.566;9.382;2023-03-14T02:11:35;98595.88;;;19.48;57.08
39449;BME280;25151;45.566;9.382;2023-03-14T02:14:37;98575.03;;;19.49;56.99
39449;BME280;25151;45.566;9.382;2023-03-14T02:17:43;98583.44;;;19.49;56.99
39449;BME280;25151;45.566;9.382;2023-03-14T02:20:53;98575.03;;;19.49;56.95
39449;BME280;25151;45.566;9.382;2023-03-14T02:24:13;98563.69;;;19.53;56.92
39449;BME280;25151;45.566;9.382;2023-03-14T02:27:18;98551.13;;;19.48;57.02
39449;BME280;25151;45.566;9.382;2023-03-14T02:30:26;98543.97;;;19.47;56.79
39449;BME280;25151;45.566;9.382;2023-03-14T02:33:28;98551.13;;;19.48;56.79
39449;BME280;25151;45.566;9.382;2023-03-14T02:36:30;98548.34;;;19.48;56.91
39449;BME280;25151;45.566;9.382;2023-03-14T02:39:40;98543.03;;;19.50;56.98
39449;BME280;25151;45.566;9.382;2023-03-14T02:42:42;98531.56;;;19.48;57.14
39449;BME280;25151;45.566;9.382;2023-03-14T02:45:46;98551.44;;;19.50;56.93
39449;BME280;25151;45.566;9.382;2023-03-14T02:48:56;98535.31;;;19.45;56.79
39449;BME280;25151;45.566;9.382;2023-03-14T02:51:59;98555.16;;;19.47;56.88
39449;BME280;25151;45.566;9.382;2023-03-14T02:55:01;98543.69;;;19.45;57.00
39449;BME280;25151;45.566;9.382;2023-03-14T02:58:02;98537.16;;;19.48;56.90
39449;BME280;25151;45.566;9.382;2023-03-14T03:01:03;98515.41;;;19.43;57.10
39449;BME280;25151;45.566;9.382;2023-03-14T03:04:05;98528.94;;;19.45;56.76
39449;BME280;25151;45.566;9.382;2023-03-14T03:07:07;98528.16;;;19.44;56.85
39449;BME280;25151;45.566;9.382;2023-03-14T03:10:09;98532.97;;;19.44;56.75
39449;BME280;25151;45.566;9.382;2023-03-14T03:13:13;98527.38;;;19.44;56.88
39449;BME280;25151;45.566;9.382;2023-03-14T03:16:14;98526.59;;;19.43;56.81
39449;BME280;25151;45.566;9.382;2023-03-14T03:19:15;98532.97;;;19.44;56.93
39449;BME280;25151;45.566;9.382;2023-03-14T03:22:18;98537.78;;;19.43;56.85
39449;BME280;25151;45.566;9.382;2023-03-14T03:25:22;98541.19;;;19.47;56.79
39449;BME280;25151;45.566;9.382;2023-03-14T03:28:23;98532.69;;;19.41;56.45
39449;BME280;25151;45.566;9.382;2023-03-14T03:31:25;98514.66;;;19.42;56.80
39449;BME280;25151;45.566;9.382;2023-03-14T03:34:28;98511.41;;;19.44;56.90
39449;BME280;25151;45.566;9.382;2023-03-14T03:37:34;98516.34;;;19.40;56.96
39449;BME280;25151;45.566;9.382;2023-03-14T03:40:36;98501.63;;;19.39;56.90
39449;BME280;25151;45.566;9.382;2023-03-14T03:43:38;98485.59;;;19.40;56.77
39449;BME280;25151;45.566;9.382;2023-03-14T03:46:39;98475.69;;;19.39;56.99
39449;BME280;25151;45.566;9.382;2023-03-14T03:49:40;98457.38;;;19.38;56.99
39449;BME280;25151;45.566;9.382;2023-03-14T03:52:41;98430.97;;;19.39;56.80
39449;BME280;25151;45.566;9.382;2023-03-14T03:55:42;98449.28;;;19.40;56.77
39449;BME280;25151;45.566;9.382;2023-03-14T03:58:43;98439.34;;;19.39;56.75
39449;BME280;25151;45.566;9.382;2023-03-14T04:01:45;98429.41;;;19.38;56.63
39449;BME280;25151;45.566;9.382;2023-03-14T04:04:47;98430.69;;;19.37;56.77
39449;BME280;25151;45.566;9.382;2023-03-14T04:07:48;98439.84;;;19.37;56.62
39449;BME280;25151;45.566;9.382;2023-03-14T04:10:49;98434.06;;;19.41;56.61
39449;BME280;25151;45.566;9.382;2023-03-14T04:13:50;98416.69;;;19.37;56.66
39449;BME280;25151;45.566;9.382;2023-03-14T04:16:52;98439.84;;;19.37;56.74
39449;BME280;25151;45.566;9.382;2023-03-14T04:19:54;98471.34;;;19.38;56.83
39449;BME280;25151;45.566;9.382;2023-03-14T04:22:54;98512.50;;;19.37;56.93
39449;BME280;25151;45.566;9.382;2023-03-14T04:25:55;98533.94;;;19.40;56.66
39449;BME280;25151;45.566;9.382;2023-03-14T04:28:57;98541.22;;;19.38;56.85
39449;BME280;25151;45.566;9.382;2023-03-14T04:31:59;98566.66;;;19.40;56.79
39449;BME280;25151;45.566;9.382;2023-03-14T04:35:00;98597.13;;;19.38;56.82
39449;BME280;25151;45.566;9.382;2023-03-14T04:38:02;98624.78;;;19.36;56.72
39449;BME280;25151;45.566;9.382;2023-03-14T04:41:04;98624.31;;;19.37;56.85
39449;BME280;25151;45.566;9.382;2023-03-14T04:44:07;98580.53;;;19.34;56.87
39449;BME280;25151;45.566;9.382;2023-03-14T04:47:14;98575.72;;;19.35;57.03
39449;BME280;25151;45.566;9.382;2023-03-14T04:50:24;98556.13;;;19.35;56.98
39449;BME280;25151;45.566;9.382;2023-03-14T04:53:27;98548.53;;;19.35;56.89
39449;BME280;25151;45.566;9.382;2023-03-14T04:56:28;98514.22;;;19.35;56.93
39449;BME280;25151;45.566;9.382;2023-03-14T04:59:30;98473.22;;;19.32;56.87
39449;BME280;25151;45.566;9.382;2023-03-14T05:02:31;98471.22;;;19.32;56.95
39449;BME280;25151;45.566;9.382;2023-03-14T05:05:32;98467.94;;;19.34;56.76
39449;BME280;25151;45.566;9.382;2023-03-14T05:08:32;98460.06;;;19.32;56.89
39449;BME280;25151;45.566;9.382;2023-03-14T05:11:34;98456.00;;;19.33;56.93
39449;BME280;25151;45.566;9.382;2023-03-14T05:14:37;98423.72;;;19.32;56.74
39449;BME280;25151;45.566;9.382;2023-03-14T05:17:39;98399.03;;;19.31;56.74
39449;BME280;25151;45.566;9.382;2023-03-14T05:20:40;98427.56;;;19.35;57.01
39449;BME280;25151;45.566;9.382;2023-03-14T05:23:43;98404.59;;;19.31;56.87
39449;BME280;25151;45.566;9.382;2023-03-14T05:26:44;98398.06;;;19.34;56.60
39449;BME280;25151;45.566;9.382;2023-03-14T05:29:47;98401.03;;;19.30;56.68
39449;BME280;25151;45.566;9.382;2023-03-14T05:32:48;98385.34;;;19.33;56.93
39449;BME280;25151;45.566;9.382;2023-03-14T05:35:50;98315.66;;;19.29;56.84
39449;BME280;25151;45.566;9.382;2023-03-14T05:38:50;98281.34;;;19.29;56.87
39449;BME280;25151;45.566;9.382;2023-03-14T05:41:51;98239.44;;;19.29;56.65
39449;BME280;25151;45.566;9.382;2023-03-14T05:44:54;98259.28;;;19.31;56.99
39449;BME280;25151;45.566;9.382;2023-03-14T05:47:55;98296.38;;;19.31;56.68
39449;BME280;25151;45.566;9.382;2023-03-14T05:50:56;98334.75;;;19.31;56.89
39449;BME280;25151;45.566;9.382;2023-03-14T05:53:57;98376.66;;;19.31;56.69
39449;BME280;25151;45.566;9.382;2023-03-14T05:56:58;98410.50;;;19.33;56.72
39449;BME280;25151;45.566;9.382;2023-03-14T05:59:59;98424.50;;;19.33;56.85
39449;BME280;25151;45.566;9.382;2023-03-14T06:03:00;98431.31;;;19.32;56.90
39449;BME280;25151;45.566;9.382;2023-03-14T06:06:01;98440.00;;;19.34;56.94
39449;BME280;25151;45.566;9.382;2023-03-14T06:09:03;98455.22;;;19.33;56.73
39449;BME280;25151;45.566;9.382;2023-03-14T06:12:06;98472.78;;;19.33;56.74
39449;BME280;25151;45.566;9.382;2023-03-14T06:15:08;98464.84;;;19.32;56.89
39449;BME280;25151;45.566;9.382;2023-03-14T06:18:09;98468.88;;;19.31;56.73
39449;BME280;25151;45.566;9.382;2023-03-14T06:21:10;98478.03;;;19.31;56.83
39449;BME280;25151;45.566;9.382;2023-03-14T06:24:11;98474.47;;;19.31;56.87
39449;BME280;25151;45.566;9.382;2023-03-14T06:27:12;98468.88;;;19.31;56.84
39449;BME280;25151;45.566;9.382;2023-03-14T06:30:14;98468.88;;;19.31;57.07
39449;BME280;25151;45.566;9.382;2023-03-14T06:33:15;98463.31;;;19.31;57.00
39449;BME280;25151;45.566;9.382;2023-03-14T06:36:16;98462.34;;;19.34;56.96
39449;BME280;25151;45.566;9.382;2023-03-14T06:39:19;98458.03;;;19.33;56.94
39449;BME280;25151;45.566;9.382;2023-03-14T06:42:20;98454.47;;;19.32;56.97
39449;BME280;25151;45.566;9.382;2023-03-14T06:45:20;98460.81;;;19.33;56.89
39449;BME280;25151;45.566;9.382;2023-03-14T06:48:21;98460.81;;;19.33;56.89
39449;BME280;25151;45.566;9.382;2023-03-14T06:51:26;98480.66;;;19.35;57.02
39449;BME280;25151;45.566;9.382;2023-03-14T06:54:41;98481.16;;;19.33;56.95
39449;BME280;25151;45.566;9.382;2023-03-14T06:57:57;98469.50;;;19.35;56.90
39449;BME280;25151;45.566;9.382;2023-03-14T07:01:12;98471.03;;;19.36;57.00
39449;BME280;25151;45.566;9.382;2023-03-14T07:04:27;98463.91;;;19.35;57.03
39449;BME280;25151;45.566;9.382;2023-03-14T07:08:07;98467.00;;;19.37;57.15
39449;BME280;25151;45.566;9.382;2023-03-14T07:11:26;98472.59;;;19.37;57.20
39449;BME280;25151;45.566;9.382;2023-03-14T07:14:40;98467.78;;;19.37;57.22
39449;BME280;25151;45.566;9.382;2023-03-14T07:17:48;98471.03;;;19.36;57.19
39449;BME280;25151;45.566;9.382;2023-03-14T07:21:09;98475.69;;;19.39;57.24
39449;BME280;25151;45.566;9.382;2023-03-14T07:24:13;98475.09;;;19.35;57.25
39449;BME280;25151;45.566;9.382;2023-03-14T07:27:23;98474.91;;;19.38;57.44
39449;BME280;25151;45.566;9.382;2023-03-14T07:30:29;98472.88;;;19.39;57.18
39449;BME280;25151;45.566;9.382;2023-03-14T07:33:37;98482.03;;;19.39;57.13
39449;BME280;25151;45.566;9.382;2023-03-14T07:36:44;98482.81;;;19.40;57.38
39449;BME280;25151;45.566;9.382;2023-03-14T07:39:51;98485.16;;;19.41;57.40
39449;BME280;25151;45.566;9.382;2023-03-14T07:42:57;98486.41;;;19.40;57.45
39449;BME280;25151;45.566;9.382;2023-03-14T07:46:03;98485.31;;;19.38;57.38
39449;BME280;25151;45.566;9.382;2023-03-14T07:49:06;98482.81;;;19.40;57.41
39449;BME280;25151;45.566;9.382;2023-03-14T07:52:14;98481.88;;;19.43;57.30
39449;BME280;25151;45.566;9.382;2023-03-14T07:55:18;98478.78;;;19.41;57.41
39449;BME280;25151;45.566;9.382;2023-03-14T07:58:21;98492.28;;;19.42;57.38
39449;BME280;25151;45.566;9.382;2023-03-14T08:01:27;98488.72;;;19.42;57.44
39449;BME280;25151;45.566;9.382;2023-03-14T08:04:33;98497.88;;;19.42;57.32
39449;BME280;25151;45.566;9.382;2023-03-14T08:07:39;98510.59;;;19.44;57.36
39449;BME280;25151;45.566;9.382;2023-03-14T08:10:43;98505.31;;;19.46;57.37
39449;BME280;25151;45.566;9.382;2023-03-14T08:13:48;98498.19;;;19.45;57.43
39449;BME280;25151;45.566;9.382;2023-03-14T08:16:59;98512.00;;;19.48;57.46
39449;BME280;25151;45.566;9.382;2023-03-14T08:20:06;98527.53;;;19.49;57.50
39449;BME280;25151;45.566;9.382;2023-03-14T08:23:10;98529.53;;;19.49;58.10
39449;BME280;25151;45.566;9.382;2023-03-14T08:26:13;98518.38;;;19.49;57.95
39449;BME280;25151;45.566;9.382;2023-03-14T08:29:19;98526.25;;;19.50;58.09
39449;BME280;25151;45.566;9.382;2023-03-14T08:32:21;98523.94;;;19.49;58.29
39449;BME280;25151;45.566;9.382;2023-03-14T08:35:25;98522.22;;;19.51;58.20
39449;BME280;25151;45.566;9.382;2023-03-14T08:38:28;98516.78;;;19.48;58.28
39449;BME280;25151;45.566;9.382;2023-03-14T08:41:36;98505.81;;;19.44;58.29
39449;BME280;25151;45.566;9.382;2023-03-14T08:44:48;98513.53;;;19.49;58.32
39449;BME280;25151;45.566;9.382;2023-03-14T08:47:57;98511.50;;;19.50;58.20
39449;BME280;25151;45.566;9.382;2023-03-14T08:51:25;98503.91;;;19.50;58.33
39449;BME280;25151;45.566;9.382;2023-03-14T08:54:27;98505.44;;;19.51;58.10
39449;BME280;25151;45.566;9.382;2023-03-14T08:57:28;98505.44;;;19.51;58.20
39449;BME280;25151;45.566;9.382;2023-03-14T09:00:30;98498.31;;;19.50;58.14
39449;BME280;25151;45.566;9.382;2023-03-14T09:03:31;98494.25;;;19.51;58.30
39449;BME280;25151;45.566;9.382;2023-03-14T09:06:34;98494.25;;;19.51;58.19
39449;BME280;25151;45.566;9.382;2023-03-14T09:09:41;98497.06;;;19.51;58.31
39449;BME280;25151;45.566;9.382;2023-03-14T09:12:45;98494.25;;;19.51;58.21
39449;BME280;25151;45.566;9.382;2023-03-14T09:15:56;98493.03;;;19.52;58.18
39449;BME280;25151;45.566;9.382;2023-03-14T09:19:01;98488.97;;;19.53;58.06
39449;BME280;25151;45.566;9.382;2023-03-14T09:22:04;98496.44;;;19.56;58.07
39449;BME280;25151;45.566;9.382;2023-03-14T09:25:06;98502.03;;;19.56;58.15
39449;BME280;25151;45.566;9.382;2023-03-14T09:28:08;98492.84;;;19.56;58.00
39449;BME280;25151;45.566;9.382;2023-03-14T09:31:16;98492.06;;;19.55;58.05
39449;BME280;25151;45.566;9.382;2023-03-14T09:34:18;98488.81;;;19.57;58.17
39449;BME280;25151;45.566;9.382;2023-03-14T09:37:20;98484.75;;;19.58;58.01
39449;BME280;25151;45.566;9.382;2023-03-14T09:40:21;98481.19;;;19.57;57.93
39449;BME280;25151;45.566;9.382;2023-03-14T09:43:25;98483.50;;;19.59;58.13
39449;BME280;25151;45.566;9.382;2023-03-14T09:46:29;98481.97;;;19.58;57.90
39449;BME280;25151;45.566;9.382;2023-03-14T09:49:39;98468.28;;;19.60;58.04
39449;BME280;25151;45.566;9.382;2023-03-14T09:52:48;98463.94;;;19.59;57.96
39449;BME280;25151;45.566;9.382;2023-03-14T09:55:51;98467.50;;;19.59;57.97
39449;BME280;25151;45.566;9.382;2023-03-14T09:58:57;98458.19;;;19.62;58.02
39449;BME280;25151;45.566;9.382;2023-03-14T10:02:20;98460.22;;;19.62;57.99
39449;BME280;25151;45.566;9.382;2023-03-14T10:05:27;98466.59;;;19.62;58.14
39449;BME280;25151;45.566;9.382;2023-03-14T10:08:32;98466.91;;;19.64;57.90
39449;BME280;25151;45.566;9.382;2023-03-14T10:11:35;98462.53;;;19.63;57.91
39449;BME280;25151;45.566;9.382;2023-03-14T10:14:48;98458.50;;;19.64;57.93
39449;BME280;25151;45.566;9.382;2023-03-14T10:17:51;98459.44;;;19.61;57.93
39449;BME280;25151;45.566;9.382;2023-03-14T10:27:34;98451.16;;;19.67;57.72
39449;BME280;25151;45.566;9.382;2023-03-14T10:30:45;98432.09;;;19.65;57.84
39449;BME280;25151;45.566;9.382;2023-03-14T10:34:12;98443.84;;;19.70;57.73
39449;BME280;25151;45.566;9.382;2023-03-14T10:37:24;98433.63;;;19.67;57.67
39449;BME280;25151;45.566;9.382;2023-03-14T10:40:34;98438.16;;;19.64;57.59
39449;BME280;25151;45.566;9.382;2023-03-14T10:43:40;98434.56;;;19.63;57.55
39449;BME280;25151;45.566;9.382;2023-03-14T10:46:42;98422.44;;;19.67;57.51
39449;BME280;25151;45.566;9.382;2023-03-14T10:49:45;98427.06;;;19.70;57.49
39449;BME280;25151;45.566;9.382;2023-03-14T10:52:48;98418.69;;;19.70;57.44
39449;BME280;25151;45.566;9.382;2023-03-14T10:55:52;98415.72;;;19.73;57.67
39449;BME280;25151;45.566;9.382;2023-03-14T10:58:56;98418.03;;;19.75;57.62
39449;BME280;25151;45.566;9.382;2023-03-14T11:02:04;98416.31;;;19.77;57.79
39449;BME280;25151;45.566;9.382;2023-03-14T11:05:18;98407.44;;;19.79;57.63
39449;BME280;25151;45.566;9.382;2023-03-14T11:08:31;98416.13;;;19.81;57.73
39449;BME280;25151;45.566;9.382;2023-03-14T11:11:37;98418.94;;;19.81;57.59
39449;BME280;25151;45.566;9.382;2023-03-14T11:14:46;98413.03;;;19.79;57.73
39449;BME280;25151;45.566;9.382;2023-03-14T11:18:25;98429.63;;;19.82;57.90
39449;BME280;25151;45.566;9.382;2023-03-14T11:21:37;98431.97;;;19.84;57.91
39449;BME280;25151;45.566;9.382;2023-03-14T11:28:44;98431.97;;;19.84;57.99
39449;BME280;25151;45.566;9.382;2023-03-14T11:31:49;98420.78;;;19.84;57.75
39449;BME280;25151;45.566;9.382;2023-03-14T11:34:55;98410.53;;;19.81;57.90
39449;BME280;25151;45.566;9.382;2023-03-14T11:38:14;98426.38;;;19.84;57.90
39449;BME280;25151;45.566;9.382;2023-03-14T11:41:23;98424.03;;;19.82;58.09
39449;BME280;25151;45.566;9.382;2023-03-14T11:44:33;98414.59;;;19.80;58.15
39449;BME280;25151;45.566;9.382;2023-03-14T11:47:40;98416.13;;;19.81;58.07
39449;BME280;25151;45.566;9.382;2023-03-14T11:50:45;98409.75;;;19.80;58.23
39449;BME280;25151;45.566;9.382;2023-03-14T11:54:01;98401.66;;;19.82;58.17
39449;BME280;25151;45.566;9.382;2023-03-14T11:57:15;98396.84;;;19.83;58.13
39449;BME280;25151;45.566;9.382;2023-03-14T12:00:22;98396.84;;;19.83;58.17
39449;BME280;25151;45.566;9.382;2023-03-14T12:04:16;98403.69;;;19.82;58.23
39449;BME280;25151;45.566;9.382;2023-03-14T12:07:01;98400.88;;;19.82;58.15
39449;BME280;25151;45.566;9.382;2023-03-14T12:10:04;98389.69;;;19.82;58.10
39449;BME280;25151;45.566;9.382;2023-03-14T12:13:09;98382.56;;;19.81;58.30
39449;BME280;25151;45.566;9.382;2023-03-14T12:19:29;98373.22;;;19.84;58.25
39449;BME280;25151;45.566;9.382;2023-03-14T12:22:35;98372.91;;;19.82;58.07
39449;BME280;25151;45.566;9.382;2023-03-14T12:25:43;98356.72;;;19.86;58.26
39449;BME280;25151;45.566;9.382;2023-03-14T12:41:46;98333.38;;;19.89;58.13
39449;BME280;25151;45.566;9.382;2023-03-14T12:45:25;98333.38;;;19.89;58.16
39449;BME280;25151;45.566;9.382;2023-03-14T12:48:32;98320.66;;;19.88;58.30
39449;BME280;25151;45.566;9.382;2023-03-14T12:51:42;98311.97;;;19.86;58.25
39449;BME280;25151;45.566;9.382;2023-03-14T13:05:24;98306.75;;;19.94;58.37
39449;BME280;25151;45.566;9.382;2023-03-14T13:08:36;98291.69;;;19.91;58.25
39449;BME280;25151;45.566;9.382;2023-03-14T13:11:43;98291.69;;;19.91;58.24
39449;BME280;25151;45.566;9.382;2023-03-14T13:14:51;98283.63;;;19.93;58.25
39449;BME280;25151;45.566;9.382;2023-03-14T13:17:56;98276.47;;;19.92;58.22
39449;BME280;25151;45.566;9.382;2023-03-14T13:21:18;98275.91;;;19.88;58.27
39449;BME280;25151;45.566;9.382;2023-03-14T13:24:25;98281.50;;;19.88;58.31
39449;BME280;25151;45.566;9.382;2023-03-14T13:27:34;98285.06;;;19.88;58.25
39449;BME280;25151;45.566;9.382;2023-03-14T13:30:42;98280.69;;;19.87;58.23
39449;BME280;25151;45.566;9.382;2023-03-14T13:33:56;98276.84;;;19.85;58.13
39449;BME280;25151;45.566;9.382;2023-03-14T13:37:01;98276.84;;;19.85;58.23
39449;BME280;25151;45.566;9.382;2023-03-14T13:40:23;98287.09;;;19.88;58.19
39449;BME280;25151;45.566;9.382;2023-03-14T13:43:32;98287.75;;;19.83;58.16
39449;BME280;25151;45.566;9.382;2023-03-14T13:46:35;98273.75;;;19.83;58.15
39449;BME280;25151;45.566;9.382;2023-03-14T13:49:39;98286.22;;;19.82;58.36
39449;BME280;25151;45.566;9.382;2023-03-14T13:52:41;98273.19;;;19.79;58.37
39449;BME280;25151;45.566;9.382;2023-03-14T13:55:42;98274.75;;;19.80;58.14
39449;BME280;25151;45.566;9.382;2023-03-14T13:58:45;98282.34;;;19.79;58.10
39449;BME280;25151;45.566;9.382;2023-03-14T14:01:49;98280.34;;;19.80;58.17
39449;BME280;25151;45.566;9.382;2023-03-14T14:04:51;98263.25;;;19.78;58.10
39449;BME280;25151;45.566;9.382;2023-03-14T14:07:53;98255.63;;;19.78;58.16
39449;BME280;25151;45.566;9.382;2023-03-14T14:10:59;98238.06;;;19.78;58.32
39449;BME280;25151;45.566;9.382;2023-03-14T14:14:05;98231.72;;;19.77;58.22
39449;BME280;25151;45.566;9.382;2023-03-14T14:17:12;98230.94;;;19.77;58.09
39449;BME280;25151;45.566;9.382;2023-03-14T14:23:28;98218.19;;;19.76;58.04
39449;BME280;25151;45.566;9.382;2023-03-14T14:26:32;98230.66;;;19.75;58.09
39449;BME280;25151;45.566;9.382;2023-03-14T14:29:34;98236.25;;;19.75;57.99
39449;BME280;25151;45.566;9.382;2023-03-14T14:32:40;98234.97;;;19.76;58.22
39449;BME280;25151;45.566;9.382;2023-03-14T14:35:51;98245.41;;;19.75;58.02
39449;BME280;25151;45.566;9.382;2023-03-14T14:39:15;98248.69;;;19.74;58.00
39449;BME280;25151;45.566;9.382;2023-03-14T14:42:20;98250.72;;;19.73;58.04
39449;BME280;25151;45.566;9.382;2023-03-14T14:45:27;98247.16;;;19.73;58.09
39449;BME280;25151;45.566;9.382;2023-03-14T14:48:36;98245.59;;;19.72;57.87
39449;BME280;25151;45.566;9.382;2023-03-14T14:51:47;98244.81;;;19.71;58.03
39449;BME280;25151;45.566;9.382;2023-03-14T14:54:58;98244.03;;;19.71;57.94
39449;BME280;25151;45.566;9.382;2023-03-14T14:58:14;98245.59;;;19.72;57.95
39449;BME280;25151;45.566;9.382;2023-03-14T15:01:37;98234.69;;;19.74;58.05
39449;BME280;25151;45.566;9.382;2023-03-14T15:05:01;98239.34;;;19.77;57.86
39449;BME280;25151;45.566;9.382;2023-03-14T15:08:51;98239.34;;;19.77;57.98
39449;BME280;25151;45.566;9.382;2023-03-14T15:12:08;98232.66;;;19.74;58.07
39449;BME280;25151;45.566;9.382;2023-03-14T15:19:52;98242.72;;;19.81;58.18
39449;BME280;25151;45.566;9.382;2023-03-14T15:23:24;98226.88;;;19.78;58.20
39449;BME280;25151;45.566;9.382;2023-03-14T15:30:45;98233.44;;;19.75;58.23
39449;BME280;25151;45.566;9.382;2023-03-14T15:33:51;98225.34;;;19.77;58.07
39449;BME280;25151;45.566;9.382;2023-03-14T15:36:54;98232.78;;;19.80;58.13
39449;BME280;25151;45.566;9.382;2023-03-14T15:39:57;98228.44;;;19.79;58.18
39449;BME280;25151;45.566;9.382;2023-03-14T15:43:02;98229.19;;;19.79;58.29
39449;BME280;25151;45.566;9.382;2023-03-14T15:46:03;98235.28;;;19.78;58.20
39449;BME280;25151;45.566;9.382;2023-03-14T15:49:08;98239.63;;;19.79;58.31
39449;BME280;25151;45.566;9.382;2023-03-14T15:52:10;98245.97;;;19.79;58.26
39449;BME280;25151;45.566;9.382;2023-03-14T15:55:14;98243.97;;;19.80;58.17
39449;BME280;25151;45.566;9.382;2023-03-14T15:58:26;98240.38;;;19.79;58.11
39449;BME280;25151;45.566;9.382;2023-03-14T16:01:30;98242.41;;;19.79;58.31
39449;BME280;25151;45.566;9.382;2023-03-14T16:04:37;98235.09;;;19.81;58.31
39449;BME280;25151;45.566;9.382;2023-03-14T16:07:40;98237.88;;;19.81;58.12
39449;BME280;25151;45.566;9.382;2023-03-14T16:10:42;98235.38;;;19.83;58.10
39449;BME280;25151;45.566;9.382;2023-03-14T16:13:48;98235.38;;;19.83;58.36
39449;BME280;25151;45.566;9.382;2023-03-14T16:16:51;98226.97;;;19.83;58.44
39449;BME280;25151;45.566;9.382;2023-03-14T16:19:53;98227.47;;;19.82;58.22
39449;BME280;25151;45.566;9.382;2023-03-14T16:22:54;98215.69;;;19.78;57.94
39449;BME280;25151;45.566;9.382;2023-03-14T16:25:57;98228.44;;;19.79;58.16
39449;BME280;25151;45.566;9.382;2023-03-14T16:29:02;98230.00;;;19.80;58.07
39449;BME280;25151;45.566;9.382;2023-03-14T16:32:04;98239.16;;;19.80;58.13
39449;BME280;25151;45.566;9.382;2023-03-14T16:35:07;98234.78;;;19.79;58.21
39449;BME280;25151;45.566;9.382;2023-03-14T16:38:08;98239.44;;;19.82;58.20
39449;BME280;25151;45.566;9.382;2023-03-14T16:44:12;98236.34;;;19.80;58.14
39449;BME280;25151;45.566;9.382;2023-03-14T16:47:15;98229.19;;;19.79;58.06
39449;BME280;25151;45.566;9.382;2023-03-14T16:50:15;98226.88;;;19.78;58.01
39449;BME280;25151;45.566;9.382;2023-03-14T16:53:17;98229.69;;;19.78;58.08
39449;BME280;25151;45.566;9.382;2023-03-14T16:56:19;98236.06;;;19.78;57.89
39449;BME280;25151;45.566;9.382;2023-03-14T16:59:20;98232.47;;;19.78;57.98
39449;BME280;25151;45.566;9.382;2023-03-14T17:02:22;98238.38;;;19.80;57.95
39449;BME280;25151;45.566;9.382;2023-03-14T17:05:23;98247.03;;;19.82;57.84
39449;BME280;25151;45.566;9.382;2023-03-14T17:08:24;98240.69;;;19.81;57.90
39449;BME280;25151;45.566;9.382;2023-03-14T17:11:25;98241.94;;;19.80;57.93
39449;BME280;25151;45.566;9.382;2023-03-14T17:14:27;98234.03;;;19.79;57.87